sensor_id;sensor_type;location;lat;lon;timestamp;temperature;humidity
25200;DHT22;33094;48.782;9.162;2022-09-30T00:00:58;9.00;99.90
25200;DHT22;33094;48.782;9.162;2022-09-30T00:03:24;10.10;99.90
25200;DHT22;33094;48.782;9.162;2022-09-30T00:05:56;12.80;99.90
25200;DHT22;33094;48.782;9.162;2022-09-30T00:08:22;9.10;99.90
25200;DHT22;33094;48.782;9.162;2022-09-30T00:10:56;11.90;99.90
25200;DHT22;33094;48.782;9.162;2022-09-30T00:13:22;9.00;99.90
25200;DHT22;33094;48.782;9.162;2022-09-30T00:15:47;9.00;99.90
25200;DHT22;33094;48.782;9.162;2022-09-30T00:18:13;10.60;99.90
25200;DHT22;33094;48.782;9.162;2022-09-30T00:20:38;13.30;99.90
25200;DHT22;33094;48.782;9.162;2022-09-30T00:23:04;9.40;99.90
25200;DHT22;33094;48.782;9.162;2022-09-30T00:25:29;12.10;99.90
25200;DHT22;33094;48.782;9.162;2022-09-30T00:27:55;9.20;99.90
25200;DHT22;33094;48.782;9.162;2022-09-30T00:30:20;9.20;99.90
25200;DHT22;33094;48.782;9.162;2022-09-30T00:32:45;11.70;99.90
25200;DHT22;33094;48.782;9.162;2022-09-30T00:35:11;9.80;99.90
25200;DHT22;33094;48.782;9.162;2022-09-30T00:37:36;9.10;99.90
25200;DHT22;33094;48.782;9.162;2022-09-30T00:40:02;10.30;99.90
25200;DHT22;33094;48.782;9.162;2022-09-30T00:42:28;9.30;99.90
25200;DHT22;33094;48.782;9.162;2022-09-30T00:44:55;12.60;99.90
25200;DHT22;33094;48.782;9.162;2022-09-30T00:47:34;9.30;99.90
25200;DHT22;33094;48.782;9.162;2022-09-30T00:52:37;9.40;99.90
25200;DHT22;33094;48.782;9.162;2022-09-30T00:55:03;9.30;99.90
25200;DHT22;33094;48.782;9.162;2022-09-30T00:57:30;9.30;99.90
25200;DHT22;33094;48.782;9.162;2022-09-30T00:59:55;9.20;99.90
25200;DHT22;33094;48.782;9.162;2022-09-30T01:02:21;12.00;99.90
25200;DHT22;33094;48.782;9.162;2022-09-30T01:04:48;9.30;99.90
25200;DHT22;33094;48.782;9.162;2022-09-30T01:07:13;13.30;99.90
25200;DHT22;33094;48.782;9.162;2022-09-30T01:09:39;9.30;99.90
25200;DHT22;33094;48.782;9.162;2022-09-30T01:12:09;9.20;99.90
25200;DHT22;33094;48.782;9.162;2022-09-30T01:14:36;11.90;99.90
25200;DHT22;33094;48.782;9.162;2022-09-30T01:35:10;10.40;99.90
25200;DHT22;33094;48.782;9.162;2022-09-30T01:38:02;9.60;99.90
25200;DHT22;33094;48.782;9.162;2022-09-30T01:40:39;9.60;99.90
25200;DHT22;33094;48.782;9.162;2022-09-30T01:51:36;9.40;99.90
25200;DHT22;33094;48.782;9.162;2022-09-30T01:54:04;9.40;99.90
25200;DHT22;33094;48.782;9.162;2022-09-30T01:56:39;9.40;99.90
25200;DHT22;33094;48.782;9.162;2022-09-30T02:04:44;9.30;99.90
25200;DHT22;33094;48.782;9.162;2022-09-30T02:07:12;9.40;99.90
25200;DHT22;33094;48.782;9.162;2022-09-30T02:09:42;9.40;99.90
25200;DHT22;33094;48.782;9.162;2022-09-30T02:12:12;9.30;99.90
25200;DHT22;33094;48.782;9.162;2022-09-30T02:14:46;9.30;99.90
25200;DHT22;33094;48.782;9.162;2022-09-30T02:17:15;9.50;99.90
25200;DHT22;33094;48.782;9.162;2022-09-30T02:19:45;9.40;99.90
25200;DHT22;33094;48.782;9.162;2022-09-30T02:22:23;9.40;99.90
25200;DHT22;33094;48.782;9.162;2022-09-30T02:24:50;9.50;99.90
25200;DHT22;33094;48.782;9.162;2022-09-30T02:27:24;9.30;99.90
25200;DHT22;33094;48.782;9.162;2022-09-30T02:29:54;9.40;99.90
25200;DHT22;33094;48.782;9.162;2022-09-30T02:32:25;9.40;99.90
25200;DHT22;33094;48.782;9.162;2022-09-30T02:35:26;12.80;99.90
25200;DHT22;33094;48.782;9.162;2022-09-30T02:37:44;9.20;99.90
25200;DHT22;33094;48.782;9.162;2022-09-30T02:40:18;13.20;99.90
25200;DHT22;33094;48.782;9.162;2022-09-30T02:42:46;9.20;99.90
25200;DHT22;33094;48.782;9.162;2022-09-30T02:45:12;11.60;99.90
25200;DHT22;33094;48.782;9.162;2022-09-30T02:50:35;9.10;99.90
25200;DHT22;33094;48.782;9.162;2022-09-30T02:58:21;9.20;99.90
25200;DHT22;33094;48.782;9.162;2022-09-30T03:00:50;9.20;99.90
25200;DHT22;33094;48.782;9.162;2022-09-30T03:05:42;9.00;99.90
25200;DHT22;33094;48.782;9.162;2022-09-30T03:08:08;12.50;99.90
25200;DHT22;33094;48.782;9.162;2022-09-30T03:10:34;9.20;99.90
25200;DHT22;33094;48.782;9.162;2022-09-30T03:13:08;9.10;99.90
25200;DHT22;33094;48.782;9.162;2022-09-30T03:23:11;9.00;99.90
25200;DHT22;33094;48.782;9.162;2022-09-30T03:25:55;8.40;99.90
25200;DHT22;33094;48.782;9.162;2022-09-30T03:30:54;8.90;99.90
25200;DHT22;33094;48.782;9.162;2022-09-30T03:33:27;8.80;99.90
25200;DHT22;33094;48.782;9.162;2022-09-30T03:35:59;8.70;99.90
25200;DHT22;33094;48.782;9.162;2022-09-30T03:43:22;8.50;99.90
25200;DHT22;33094;48.782;9.162;2022-09-30T03:45:59;8.60;99.90
25200;DHT22;33094;48.782;9.162;2022-09-30T03:48:26;8.60;99.90
25200;DHT22;33094;48.782;9.162;2022-09-30T03:50:52;8.50;99.90
25200;DHT22;33094;48.782;9.162;2022-09-30T03:53:18;8.50;99.90
25200;DHT22;33094;48.782;9.162;2022-09-30T03:55:48;11.50;99.90
25200;DHT22;33094;48.782;9.162;2022-09-30T03:58:15;8.50;99.90
25200;DHT22;33094;48.782;9.162;2022-09-30T04:00:47;8.50;99.90
25200;DHT22;33094;48.782;9.162;2022-09-30T04:03:14;8.30;99.90
25200;DHT22;33094;48.782;9.162;2022-09-30T04:05:39;8.40;99.90
25200;DHT22;33094;48.782;9.162;2022-09-30T04:08:05;8.40;99.90
25200;DHT22;33094;48.782;9.162;2022-09-30T04:10:30;8.40;99.90
25200;DHT22;33094;48.782;9.162;2022-09-30T04:12:55;8.30;99.90
25200;DHT22;33094;48.782;9.162;2022-09-30T04:15:22;8.40;99.90
25200;DHT22;33094;48.782;9.162;2022-09-30T04:17:47;8.70;99.90
25200;DHT22;33094;48.782;9.162;2022-09-30T04:20:13;8.40;99.90
25200;DHT22;33094;48.782;9.162;2022-09-30T04:22:38;8.40;99.90
25200;DHT22;33094;48.782;9.162;2022-09-30T04:25:04;8.40;99.90
25200;DHT22;33094;48.782;9.162;2022-09-30T04:27:29;8.40;99.90
25200;DHT22;33094;48.782;9.162;2022-09-30T04:29:55;8.50;99.90
25200;DHT22;33094;48.782;9.162;2022-09-30T04:32:21;8.40;99.90
25200;DHT22;33094;48.782;9.162;2022-09-30T04:34:46;8.40;99.90
25200;DHT22;33094;48.782;9.162;2022-09-30T04:37:12;8.30;99.90
25200;DHT22;33094;48.782;9.162;2022-09-30T04:39:38;8.30;99.90
25200;DHT22;33094;48.782;9.162;2022-09-30T04:42:03;8.20;99.90
25200;DHT22;33094;48.782;9.162;2022-09-30T04:44:29;8.20;99.90
25200;DHT22;33094;48.782;9.162;2022-09-30T04:46:54;8.20;99.90
25200;DHT22;33094;48.782;9.162;2022-09-30T04:49:20;8.10;99.90
25200;DHT22;33094;48.782;9.162;2022-09-30T04:51:45;8.00;99.90
25200;DHT22;33094;48.782;9.162;2022-09-30T04:54:11;8.00;99.90
25200;DHT22;33094;48.782;9.162;2022-09-30T04:56:37;8.00;99.90
25200;DHT22;33094;48.782;9.162;2022-09-30T04:59:02;7.80;99.90
25200;DHT22;33094;48.782;9.162;2022-09-30T05:01:28;8.00;99.90
25200;DHT22;33094;48.782;9.162;2022-09-30T05:03:53;8.00;99.90
25200;DHT22;33094;48.782;9.162;2022-09-30T05:06:19;12.70;99.90
25200;DHT22;33094;48.782;9.162;2022-09-30T05:08:45;7.90;99.90
25200;DHT22;33094;48.782;9.162;2022-09-30T05:11:13;7.80;99.90
25200;DHT22;33094;48.782;9.162;2022-09-30T05:13:39;7.70;99.90
25200;DHT22;33094;48.782;9.162;2022-09-30T05:16:05;7.90;99.90
25200;DHT22;33094;48.782;9.162;2022-09-30T05:18:31;7.80;99.90
25200;DHT22;33094;48.782;9.162;2022-09-30T05:20:58;7.80;99.90
25200;DHT22;33094;48.782;9.162;2022-09-30T05:23:24;7.90;99.90
25200;DHT22;33094;48.782;9.162;2022-09-30T05:25:50;7.80;99.90
25200;DHT22;33094;48.782;9.162;2022-09-30T05:28:16;7.90;99.90
25200;DHT22;33094;48.782;9.162;2022-09-30T05:30:41;7.80;99.90
25200;DHT22;33094;48.782;9.162;2022-09-30T05:33:08;7.90;99.90
25200;DHT22;33094;48.782;9.162;2022-09-30T05:35:33;7.90;99.90
25200;DHT22;33094;48.782;9.162;2022-09-30T05:37:59;7.80;99.90
25200;DHT22;33094;48.782;9.162;2022-09-30T05:40:25;7.80;99.90
25200;DHT22;33094;48.782;9.162;2022-09-30T05:42:51;7.80;99.90
25200;DHT22;33094;48.782;9.162;2022-09-30T05:45:16;7.60;99.90
25200;DHT22;33094;48.782;9.162;2022-09-30T05:47:42;7.80;99.90
25200;DHT22;33094;48.782;9.162;2022-09-30T05:50:07;7.80;99.90
25200;DHT22;33094;48.782;9.162;2022-09-30T05:52:33;7.80;99.90
25200;DHT22;33094;48.782;9.162;2022-09-30T05:54:58;7.80;99.90
25200;DHT22;33094;48.782;9.162;2022-09-30T05:57:28;7.80;99.90
25200;DHT22;33094;48.782;9.162;2022-09-30T05:59:54;7.80;99.90
25200;DHT22;33094;48.782;9.162;2022-09-30T06:02:22;8.00;99.90
25200;DHT22;33094;48.782;9.162;2022-09-30T06:04:47;8.00;99.90
25200;DHT22;33094;48.782;9.162;2022-09-30T06:07:13;12.40;99.90
25200;DHT22;33094;48.782;9.162;2022-09-30T06:09:38;8.00;99.90
25200;DHT22;33094;48.782;9.162;2022-09-30T06:12:04;8.00;99.90
25200;DHT22;33094;48.782;9.162;2022-09-30T06:14:30;7.90;99.90
25200;DHT22;33094;48.782;9.162;2022-09-30T06:16:57;8.00;99.90
25200;DHT22;33094;48.782;9.162;2022-09-30T06:19:25;8.10;99.90
25200;DHT22;33094;48.782;9.162;2022-09-30T06:21:51;8.10;99.90
25200;DHT22;33094;48.782;9.162;2022-09-30T06:24:17;8.20;99.90
25200;DHT22;33094;48.782;9.162;2022-09-30T06:26:42;8.10;99.90
25200;DHT22;33094;48.782;9.162;2022-09-30T06:29:08;11.80;99.90
25200;DHT22;33094;48.782;9.162;2022-09-30T06:31:33;8.20;99.90
25200;DHT22;33094;48.782;9.162;2022-09-30T06:33:59;8.20;99.90
25200;DHT22;33094;48.782;9.162;2022-09-30T06:36:25;12.80;99.90
25200;DHT22;33094;48.782;9.162;2022-09-30T06:38:53;8.10;99.90
25200;DHT22;33094;48.782;9.162;2022-09-30T06:41:19;8.10;99.90
25200;DHT22;33094;48.782;9.162;2022-09-30T06:43:45;8.20;99.90
25200;DHT22;33094;48.782;9.162;2022-09-30T06:46:11;8.30;99.90
25200;DHT22;33094;48.782;9.162;2022-09-30T06:48:37;8.40;99.90
25200;DHT22;33094;48.782;9.162;2022-09-30T06:51:02;8.40;99.90
25200;DHT22;33094;48.782;9.162;2022-09-30T06:53:28;8.30;99.90
25200;DHT22;33094;48.782;9.162;2022-09-30T06:55:54;12.00;99.90
25200;DHT22;33094;48.782;9.162;2022-09-30T06:58:20;8.40;99.90
25200;DHT22;33094;48.782;9.162;2022-09-30T07:00:54;8.50;99.90
25200;DHT22;33094;48.782;9.162;2022-09-30T07:03:21;8.50;99.90
25200;DHT22;33094;48.782;9.162;2022-09-30T07:05:53;8.50;99.90
25200;DHT22;33094;48.782;9.162;2022-09-30T07:08:18;8.50;99.90
25200;DHT22;33094;48.782;9.162;2022-09-30T07:10:45;8.80;99.90
25200;DHT22;33094;48.782;9.162;2022-09-30T07:13:11;9.00;99.90
25200;DHT22;33094;48.782;9.162;2022-09-30T07:15:40;9.10;99.90
25200;DHT22;33094;48.782;9.162;2022-09-30T07:18:06;9.10;99.90
25200;DHT22;33094;48.782;9.162;2022-09-30T07:20:32;9.20;99.90
25200;DHT22;33094;48.782;9.162;2022-09-30T07:22:57;12.40;99.90
25200;DHT22;33094;48.782;9.162;2022-09-30T07:25:23;9.60;99.90
25200;DHT22;33094;48.782;9.162;2022-09-30T07:27:49;9.60;99.90
25200;DHT22;33094;48.782;9.162;2022-09-30T07:30:14;12.50;99.90
25200;DHT22;33094;48.782;9.162;2022-09-30T07:32:40;9.70;99.90
25200;DHT22;33094;48.782;9.162;2022-09-30T07:35:06;9.80;99.90
25200;DHT22;33094;48.782;9.162;2022-09-30T07:37:31;9.80;99.90
25200;DHT22;33094;48.782;9.162;2022-09-30T07:40:01;10.10;99.90
25200;DHT22;33094;48.782;9.162;2022-09-30T07:42:26;10.20;99.90
25200;DHT22;33094;48.782;9.162;2022-09-30T07:44:52;10.10;99.90
25200;DHT22;33094;48.782;9.162;2022-09-30T07:47:18;13.30;99.90
25200;DHT22;33094;48.782;9.162;2022-09-30T07:49:44;9.90;99.90
25200;DHT22;33094;48.782;9.162;2022-09-30T07:52:10;10.00;99.90
25200;DHT22;33094;48.782;9.162;2022-09-30T07:54:36;10.60;99.90
25200;DHT22;33094;48.782;9.162;2022-09-30T07:57:03;11.80;99.90
25200;DHT22;33094;48.782;9.162;2022-09-30T07:59:29;10.60;99.90
25200;DHT22;33094;48.782;9.162;2022-09-30T08:01:55;10.60;99.90
25200;DHT22;33094;48.782;9.162;2022-09-30T08:04:21;10.70;99.90
25200;DHT22;33094;48.782;9.162;2022-09-30T08:06:48;12.40;99.90
25200;DHT22;33094;48.782;9.162;2022-09-30T08:09:15;12.50;99.90
25200;DHT22;33094;48.782;9.162;2022-09-30T08:11:41;15.40;99.90
25200;DHT22;33094;48.782;9.162;2022-09-30T08:14:10;10.90;99.90
25200;DHT22;33094;48.782;9.162;2022-09-30T08:16:36;11.10;99.90
25200;DHT22;33094;48.782;9.162;2022-09-30T08:19:02;11.10;99.90
25200;DHT22;33094;48.782;9.162;2022-09-30T08:21:27;12.40;99.90
25200;DHT22;33094;48.782;9.162;2022-09-30T08:23:53;11.40;99.90
25200;DHT22;33094;48.782;9.162;2022-09-30T08:26:19;14.10;99.90
25200;DHT22;33094;48.782;9.162;2022-09-30T08:28:45;11.40;99.90
25200;DHT22;33094;48.782;9.162;2022-09-30T08:31:18;11.50;99.90
25200;DHT22;33094;48.782;9.162;2022-09-30T08:33:44;11.50;99.90
25200;DHT22;33094;48.782;9.162;2022-09-30T08:36:14;11.40;99.90
25200;DHT22;33094;48.782;9.162;2022-09-30T08:38:40;11.50;99.90
25200;DHT22;33094;48.782;9.162;2022-09-30T08:43:38;11.40;99.90
25200;DHT22;33094;48.782;9.162;2022-09-30T08:46:10;11.20;99.90
25200;DHT22;33094;48.782;9.162;2022-09-30T08:53:47;11.30;99.90
25200;DHT22;33094;48.782;9.162;2022-09-30T09:01:57;11.50;99.90
25200;DHT22;33094;48.782;9.162;2022-09-30T09:04:25;11.60;99.90
25200;DHT22;33094;48.782;9.162;2022-09-30T09:06:57;14.00;99.90
25200;DHT22;33094;48.782;9.162;2022-09-30T09:14:47;15.20;99.90
25200;DHT22;33094;48.782;9.162;2022-09-30T09:17:31;15.50;99.90
25200;DHT22;33094;48.782;9.162;2022-09-30T09:20:14;16.50;99.90
25200;DHT22;33094;48.782;9.162;2022-09-30T09:22:41;17.20;99.90
25200;DHT22;33094;48.782;9.162;2022-09-30T09:25:12;18.70;99.90
25200;DHT22;33094;48.782;9.162;2022-09-30T09:30:18;16.80;99.90
25200;DHT22;33094;48.782;9.162;2022-09-30T09:32:46;16.80;99.90
25200;DHT22;33094;48.782;9.162;2022-09-30T09:35:22;18.30;99.90
25200;DHT22;33094;48.782;9.162;2022-09-30T09:40:45;16.70;99.90
25200;DHT22;33094;48.782;9.162;2022-09-30T09:46:28;17.30;99.90
25200;DHT22;33094;48.782;9.162;2022-09-30T09:48:49;15.50;99.90
25200;DHT22;33094;48.782;9.162;2022-09-30T09:51:23;16.10;99.90
25200;DHT22;33094;48.782;9.162;2022-09-30T09:53:51;17.70;99.90
25200;DHT22;33094;48.782;9.162;2022-09-30T09:56:18;21.00;99.90
25200;DHT22;33094;48.782;9.162;2022-09-30T10:01:32;17.80;99.90
25200;DHT22;33094;48.782;9.162;2022-09-30T10:04:08;17.20;99.90
25200;DHT22;33094;48.782;9.162;2022-09-30T10:06:41;17.50;99.90
25200;DHT22;33094;48.782;9.162;2022-09-30T10:09:08;16.90;99.90
25200;DHT22;33094;48.782;9.162;2022-09-30T10:11:46;17.50;99.90
25200;DHT22;33094;48.782;9.162;2022-09-30T10:14:15;20.30;99.90
25200;DHT22;33094;48.782;9.162;2022-09-30T10:16:41;17.90;99.90
25200;DHT22;33094;48.782;9.162;2022-09-30T10:19:20;21.10;99.90
25200;DHT22;33094;48.782;9.162;2022-09-30T10:21:47;18.90;99.90
25200;DHT22;33094;48.782;9.162;2022-09-30T10:24:24;19.40;99.90
25200;DHT22;33094;48.782;9.162;2022-09-30T10:26:50;20.00;99.90
25200;DHT22;33094;48.782;9.162;2022-09-30T10:31:51;19.00;99.90
25200;DHT22;33094;48.782;9.162;2022-09-30T10:34:24;19.30;99.90
25200;DHT22;33094;48.782;9.162;2022-09-30T10:36:51;18.90;99.90
25200;DHT22;33094;48.782;9.162;2022-09-30T10:39:18;22.90;99.90
25200;DHT22;33094;48.782;9.162;2022-09-30T10:41:46;21.40;99.90
25200;DHT22;33094;48.782;9.162;2022-09-30T10:44:13;22.90;99.90
25200;DHT22;33094;48.782;9.162;2022-09-30T10:49:46;21.10;99.90
25200;DHT22;33094;48.782;9.162;2022-09-30T10:52:30;21.60;99.90
25200;DHT22;33094;48.782;9.162;2022-09-30T10:55:06;20.80;99.80
25200;DHT22;33094;48.782;9.162;2022-09-30T10:57:33;24.60;99.90
25200;DHT22;33094;48.782;9.162;2022-09-30T11:02:29;21.70;99.90
25200;DHT22;33094;48.782;9.162;2022-09-30T11:05:30;22.10;99.90
25200;DHT22;33094;48.782;9.162;2022-09-30T11:07:52;21.00;99.70
25200;DHT22;33094;48.782;9.162;2022-09-30T11:10:28;22.10;98.20
25200;DHT22;33094;48.782;9.162;2022-09-30T11:15:31;21.10;96.70
25200;DHT22;33094;48.782;9.162;2022-09-30T11:18:12;21.80;97.10
25200;DHT22;33094;48.782;9.162;2022-09-30T11:20:42;21.10;97.90
25200;DHT22;33094;48.782;9.162;2022-09-30T11:33:53;22.30;95.20
25200;DHT22;33094;48.782;9.162;2022-09-30T11:42:05;21.20;95.80
25200;DHT22;33094;48.782;9.162;2022-09-30T11:44:30;21.60;95.60
25200;DHT22;33094;48.782;9.162;2022-09-30T11:52:17;20.60;96.40
25200;DHT22;33094;48.782;9.162;2022-09-30T11:57:36;20.90;96.30
25200;DHT22;33094;48.782;9.162;2022-09-30T12:02:41;21.30;95.90
25200;DHT22;33094;48.782;9.162;2022-09-30T12:08:02;22.90;94.50
25200;DHT22;33094;48.782;9.162;2022-09-30T12:13:19;22.70;93.50
25200;DHT22;33094;48.782;9.162;2022-09-30T12:15:46;26.20;95.70
25200;DHT22;33094;48.782;9.162;2022-09-30T12:18:14;22.60;95.10
25200;DHT22;33094;48.782;9.162;2022-09-30T12:20:41;22.60;93.80
25200;DHT22;33094;48.782;9.162;2022-09-30T12:25:58;21.20;93.50
25200;DHT22;33094;48.782;9.162;2022-09-30T12:28:28;20.80;93.80
25200;DHT22;33094;48.782;9.162;2022-09-30T12:36:43;20.00;93.80
25200;DHT22;33094;48.782;9.162;2022-09-30T12:49:55;22.60;93.60
25200;DHT22;33094;48.782;9.162;2022-09-30T12:52:22;21.90;92.50
25200;DHT22;33094;48.782;9.162;2022-09-30T12:54:54;21.20;92.50
25200;DHT22;33094;48.782;9.162;2022-09-30T12:57:23;21.70;92.20
25200;DHT22;33094;48.782;9.162;2022-09-30T12:59:54;20.10;93.20
25200;DHT22;33094;48.782;9.162;2022-09-30T13:02:26;19.60;94.10
25200;DHT22;33094;48.782;9.162;2022-09-30T13:04:53;22.60;92.90
25200;DHT22;33094;48.782;9.162;2022-09-30T13:07:21;19.60;94.10
25200;DHT22;33094;48.782;9.162;2022-09-30T13:10:51;19.20;92.40
25200;DHT22;33094;48.782;9.162;2022-09-30T13:12:43;17.80;93.00
25200;DHT22;33094;48.782;9.162;2022-09-30T13:15:36;19.70;94.00
25200;DHT22;33094;48.782;9.162;2022-09-30T13:23:46;19.00;93.90
25200;DHT22;33094;48.782;9.162;2022-09-30T13:28:46;19.50;92.80
25200;DHT22;33094;48.782;9.162;2022-09-30T13:31:15;21.60;91.80
25200;DHT22;33094;48.782;9.162;2022-09-30T13:39:17;18.20;94.90
25200;DHT22;33094;48.782;9.162;2022-09-30T13:41:43;17.40;95.40
25200;DHT22;33094;48.782;9.162;2022-09-30T13:44:15;17.10;95.70
25200;DHT22;33094;48.782;9.162;2022-09-30T13:46:58;16.80;96.10
25200;DHT22;33094;48.782;9.162;2022-09-30T13:49:38;16.70;96.60
25200;DHT22;33094;48.782;9.162;2022-09-30T13:52:07;16.50;96.30
25200;DHT22;33094;48.782;9.162;2022-09-30T13:54:34;16.30;95.70
25200;DHT22;33094;48.782;9.162;2022-09-30T13:57:04;16.40;95.70
25200;DHT22;33094;48.782;9.162;2022-09-30T13:59:37;16.30;96.10
25200;DHT22;33094;48.782;9.162;2022-09-30T14:12:09;16.50;96.60
25200;DHT22;33094;48.782;9.162;2022-09-30T14:22:41;16.40;99.80
25200;DHT22;33094;48.782;9.162;2022-09-30T14:25:14;16.70;99.70
25200;DHT22;33094;48.782;9.162;2022-09-30T14:30:21;16.50;98.90
25200;DHT22;33094;48.782;9.162;2022-09-30T14:33:08;16.60;98.90
25200;DHT22;33094;48.782;9.162;2022-09-30T14:35:33;16.60;98.70
25200;DHT22;33094;48.782;9.162;2022-09-30T14:38:02;18.30;99.20
25200;DHT22;33094;48.782;9.162;2022-09-30T14:40:30;16.20;98.40
25200;DHT22;33094;48.782;9.162;2022-09-30T14:43:00;16.20;98.10
25200;DHT22;33094;48.782;9.162;2022-09-30T14:45:34;16.30;98.50
25200;DHT22;33094;48.782;9.162;2022-09-30T14:48:05;16.40;98.60
25200;DHT22;33094;48.782;9.162;2022-09-30T14:50:34;16.40;98.80
25200;DHT22;33094;48.782;9.162;2022-09-30T14:53:00;16.50;98.80
25200;DHT22;33094;48.782;9.162;2022-09-30T14:57:56;16.70;98.40
25200;DHT22;33094;48.782;9.162;2022-09-30T15:00:37;16.30;98.40
25200;DHT22;33094;48.782;9.162;2022-09-30T15:03:02;16.20;99.10
25200;DHT22;33094;48.782;9.162;2022-09-30T15:05:34;16.20;99.00
25200;DHT22;33094;48.782;9.162;2022-09-30T15:08:00;16.00;99.40
25200;DHT22;33094;48.782;9.162;2022-09-30T15:10:25;16.00;99.60
25200;DHT22;33094;48.782;9.162;2022-09-30T15:12:53;16.00;99.20
25200;DHT22;33094;48.782;9.162;2022-09-30T15:15:25;16.00;99.40
25200;DHT22;33094;48.782;9.162;2022-09-30T15:17:50;16.00;99.70
25200;DHT22;33094;48.782;9.162;2022-09-30T15:20:29;15.90;99.20
25200;DHT22;33094;48.782;9.162;2022-09-30T15:22:56;15.90;99.30
25200;DHT22;33094;48.782;9.162;2022-09-30T15:25:24;15.90;99.20
25200;DHT22;33094;48.782;9.162;2022-09-30T15:27:49;15.90;99.40
25200;DHT22;33094;48.782;9.162;2022-09-30T15:32:44;15.90;99.50
25200;DHT22;33094;48.782;9.162;2022-09-30T15:35:19;15.80;98.90
25200;DHT22;33094;48.782;9.162;2022-09-30T15:37:46;15.80;99.30
25200;DHT22;33094;48.782;9.162;2022-09-30T15:40:13;16.80;99.90
25200;DHT22;33094;48.782;9.162;2022-09-30T15:42:59;15.80;99.90
25200;DHT22;33094;48.782;9.162;2022-09-30T15:48:00;15.80;99.80
25200;DHT22;33094;48.782;9.162;2022-09-30T15:53:05;17.00;99.90
25200;DHT22;33094;48.782;9.162;2022-09-30T15:55:38;15.50;99.90
25200;DHT22;33094;48.782;9.162;2022-09-30T15:58:25;15.60;99.90
25200;DHT22;33094;48.782;9.162;2022-09-30T16:00:52;15.70;99.90
25200;DHT22;33094;48.782;9.162;2022-09-30T16:05:44;15.50;99.90
25200;DHT22;33094;48.782;9.162;2022-09-30T16:08:13;15.50;99.90
25200;DHT22;33094;48.782;9.162;2022-09-30T16:10:47;15.50;99.90
25200;DHT22;33094;48.782;9.162;2022-09-30T16:13:13;15.50;99.90
25200;DHT22;33094;48.782;9.162;2022-09-30T16:15:39;15.50;99.90
25200;DHT22;33094;48.782;9.162;2022-09-30T16:18:13;15.30;99.90
25200;DHT22;33094;48.782;9.162;2022-09-30T16:20:41;15.30;99.90
25200;DHT22;33094;48.782;9.162;2022-09-30T16:23:28;15.30;99.90
25200;DHT22;33094;48.782;9.162;2022-09-30T16:26:10;15.20;99.90
25200;DHT22;33094;48.782;9.162;2022-09-30T16:28:36;15.20;99.90
25200;DHT22;33094;48.782;9.162;2022-09-30T16:31:01;15.10;99.90
25200;DHT22;33094;48.782;9.162;2022-09-30T16:33:27;15.10;99.90
25200;DHT22;33094;48.782;9.162;2022-09-30T16:35:52;15.10;99.90
25200;DHT22;33094;48.782;9.162;2022-09-30T16:38:18;14.90;99.90
25200;DHT22;33094;48.782;9.162;2022-09-30T16:40:44;15.00;99.90
25200;DHT22;33094;48.782;9.162;2022-09-30T16:43:09;14.90;99.90
25200;DHT22;33094;48.782;9.162;2022-09-30T16:45:35;14.80;99.90
25200;DHT22;33094;48.782;9.162;2022-09-30T16:48:04;14.60;99.90
25200;DHT22;33094;48.782;9.162;2022-09-30T16:50:42;14.60;99.90
25200;DHT22;33094;48.782;9.162;2022-09-30T16:53:09;14.50;99.90
25200;DHT22;33094;48.782;9.162;2022-09-30T16:55:35;14.40;99.90
25200;DHT22;33094;48.782;9.162;2022-09-30T16:58:00;14.40;99.90
25200;DHT22;33094;48.782;9.162;2022-09-30T17:00:29;14.10;99.90
25200;DHT22;33094;48.782;9.162;2022-09-30T17:02:54;13.90;99.90
25200;DHT22;33094;48.782;9.162;2022-09-30T17:05:21;14.00;99.90
25200;DHT22;33094;48.782;9.162;2022-09-30T17:07:54;13.90;99.90
25200;DHT22;33094;48.782;9.162;2022-09-30T17:10:29;14.00;99.90
25200;DHT22;33094;48.782;9.162;2022-09-30T17:12:55;13.80;99.90
25200;DHT22;33094;48.782;9.162;2022-09-30T17:15:21;13.80;99.90
25200;DHT22;33094;48.782;9.162;2022-09-30T17:57:03;12.60;99.90
25200;DHT22;33094;48.782;9.162;2022-09-30T18:14:09;12.10;99.90
25200;DHT22;33094;48.782;9.162;2022-09-30T18:19:02;12.10;99.90
25200;DHT22;33094;48.782;9.162;2022-09-30T18:43:37;11.60;99.90
25200;DHT22;33094;48.782;9.162;2022-09-30T19:12:55;11.40;99.90
25200;DHT22;33094;48.782;9.162;2022-09-30T19:42:16;10.80;99.90
25200;DHT22;33094;48.782;9.162;2022-09-30T19:47:08;10.70;99.90
25200;DHT22;33094;48.782;9.162;2022-09-30T19:52:00;10.70;99.90
25200;DHT22;33094;48.782;9.162;2022-09-30T20:16:58;10.40;99.90
25200;DHT22;33094;48.782;9.162;2022-09-30T20:29:08;10.40;99.90
25200;DHT22;33094;48.782;9.162;2022-09-30T20:36:27;10.30;99.90
25200;DHT22;33094;48.782;9.162;2022-09-30T20:51:11;10.30;99.90
25200;DHT22;33094;48.782;9.162;2022-09-30T20:56:06;10.30;99.90
25200;DHT22;33094;48.782;9.162;2022-09-30T20:58:33;10.10;99.90
25200;DHT22;33094;48.782;9.162;2022-09-30T21:03:26;10.20;99.90
25200;DHT22;33094;48.782;9.162;2022-09-30T21:08:20;10.20;99.90
25200;DHT22;33094;48.782;9.162;2022-09-30T21:10:46;10.10;99.90
25200;DHT22;33094;48.782;9.162;2022-09-30T21:13:12;10.10;99.90
25200;DHT22;33094;48.782;9.162;2022-09-30T21:15:38;10.10;99.90
25200;DHT22;33094;48.782;9.162;2022-09-30T21:18:07;10.10;99.90
25200;DHT22;33094;48.782;9.162;2022-09-30T21:25:30;10.00;99.90
25200;DHT22;33094;48.782;9.162;2022-09-30T21:32:48;9.70;99.90
25200;DHT22;33094;48.782;9.162;2022-09-30T21:35:14;9.70;99.90
25200;DHT22;33094;48.782;9.162;2022-09-30T21:42:32;9.70;99.90
25200;DHT22;33094;48.782;9.162;2022-09-30T21:47:25;9.80;99.90
25200;DHT22;33094;48.782;9.162;2022-09-30T21:52:18;9.70;99.90
25200;DHT22;33094;48.782;9.162;2022-09-30T21:57:14;9.60;99.90
25200;DHT22;33094;48.782;9.162;2022-09-30T22:07:05;9.80;99.90
25200;DHT22;33094;48.782;9.162;2022-09-30T22:09:31;9.80;99.90
25200;DHT22;33094;48.782;9.162;2022-09-30T22:24:11;9.70;99.90
25200;DHT22;33094;48.782;9.162;2022-09-30T22:29:09;9.80;99.90
25200;DHT22;33094;48.782;9.162;2022-09-30T22:34:02;9.60;99.90
25200;DHT22;33094;48.782;9.162;2022-09-30T22:39:31;9.70;99.90
25200;DHT22;33094;48.782;9.162;2022-09-30T22:44:25;9.80;99.90
25200;DHT22;33094;48.782;9.162;2022-09-30T22:46:51;9.80;99.90
25200;DHT22;33094;48.782;9.162;2022-09-30T22:51:44;9.70;99.90
25200;DHT22;33094;48.782;9.162;2022-09-30T22:54:11;9.70;99.90
25200;DHT22;33094;48.782;9.162;2022-09-30T22:59:03;9.80;99.90
25200;DHT22;33094;48.782;9.162;2022-09-30T23:01:29;9.80;99.90
25200;DHT22;33094;48.782;9.162;2022-09-30T23:03:55;9.80;99.90
25200;DHT22;33094;48.782;9.162;2022-09-30T23:21:03;9.70;99.90
25200;DHT22;33094;48.782;9.162;2022-09-30T23:30:47;9.60;99.90
25200;DHT22;33094;48.782;9.162;2022-09-30T23:33:13;9.70;99.90
25200;DHT22;33094;48.782;9.162;2022-09-30T23:35:43;9.60;99.90
25200;DHT22;33094;48.782;9.162;2022-09-30T23:38:09;9.60;99.90